Arrow — CRXN — position and weather

sailwx.info

Track history (hours):
 
Tides and Currents Weather Stations Pressure Air Temp Water Temp Dewpoint Dewpoint Depression Visibility Wind Speed Wind Dir Waves Ship Positions

Arrow

Last reported at 2015-Apr-21 04:29 UTC. Time now 2015-May-05 22:20 UTC.
Position N 36°45' E 001°20'.
Warning: this ship's position is 14 days out of date.

Length 126 m; draft 8.3 m.

Type: Cargo ship. MMSI: 255797000.

Date/timePositionNaut miles runAvg speedWind from/ knotsBaromVisibWave heightAir tempDewpointWater temp
2015-Apr-21 04:29N 36°45' E 001°20'3310.9
2015-Apr-21 01:30N 36°39' E 000°40'1311.0
2015-Apr-21 00:20N 36°37' E 000°24'910.5
2015-Apr-20 23:29N 36°36' E 000°13'3110.6
2015-Apr-20 20:31N 36°30' W 000°25'1110.9
2015-Apr-20 19:33N 36°28' W 000°38'1111.1
2015-Apr-20 18:33N 36°27' W 000°52'21311.5
2015-Apr-20 00:04N 35°58' W 005°13'714.9
2015-Apr-19 23:34N 35°58' W 005°22'25710.6
2015-Apr-18 23:23N 38°11' W 009°58'1012.2
2015-Apr-18 22:33N 38°21' W 010°01'1312.6
2015-Apr-18 21:33N 38°33' W 010°04'1212.3
2015-Apr-18 20:33N 38°45' W 010°06'1312.4
2015-Apr-18 19:33N 38°58' W 010°03'1312.7
2015-Apr-18 18:33N 39°09' W 009°56'1212.3
2015-Apr-18 17:33N 39°20' W 009°50'  
2015-Apr-14 06:31N 39°16' W 009°46'1111.8
2015-Apr-14 05:33N 39°04' W 009°48'1211.8
2015-Apr-14 04:33N 38°53' W 009°50'1211.6
2015-Apr-14 03:33N 38°41' W 009°51'1211.6
2015-Apr-14 02:33N 38°30' W 009°48'1211.8
2015-Apr-14 01:33N 38°18' W 009°45'1211.6
2015-Apr-14 00:33N 38°07' W 009°41'1211.6
2015-Apr-13 23:33N 37°56' W 009°37'1211.5
2015-Apr-13 22:33N 37°45' W 009°33'1111.3
2015-Apr-13 21:32N 37°34' W 009°30'8810.4
2015-Apr-13 13:04N 36°30' W 008°13'13212.3
2015-Apr-13 02:20N 35°57' W 005°35'810.6
2015-Apr-13 01:33N 35°59' W 005°25'7 7.1
2015-Apr-13 00:31N 35°54' W 005°19'0 0.0
2015-Apr-12 23:31N 35°54' W 005°19'0 0.0
2015-Apr-12 22:31N 35°54' W 005°19'0 0.0
2015-Apr-12 21:31N 35°54' W 005°19'0 0.0
2015-Apr-12 20:33N 35°54' W 005°19'0 0.0
2015-Apr-12 19:33N 35°54' W 005°19'1 1.0
2015-Apr-12 18:33N 35°55' W 005°19'22611.1
2015-Apr-11 22:06N 37°18' W 000°57'712.3
2015-Apr-11 21:33N 37°23' W 000°51'1412.4
2015-Apr-11 20:24N 37°32' W 000°37'1012.2
2015-Apr-11 19:33N 37°40' W 000°28'1212.2
2015-Apr-11 18:33N 37°49' W 000°18'1612.4
2015-Apr-11 17:14N 38°01' W 000°04'3512.5
2015-Apr-11 14:29N 38°27' E 000°25'1111.7
2015-Apr-11 13:32N 38°35' E 000°35'1312.4
2015-Apr-11 12:27N 38°45' E 000°46'3411.8
2015-Apr-11 09:33N 39°10' E 001°17'1211.8
2015-Apr-11 08:32N 39°18' E 001°28'1111.8
2015-Apr-11 07:33N 39°26' E 001°39'1211.8
2015-Apr-11 06:33N 39°34' E 001°50'1211.7
2015-Apr-11 05:33N 39°41' E 002°01'1111.4
2015-Apr-11 04:33N 39°49' E 002°13'  
Track history (hours):
 
Tides and Currents Weather Stations Pressure Air Temp Water Temp Dewpoint Dewpoint Depression Visibility Wind Speed Wind Dir Waves Ship Positions

Arrow

Last reported at 2015-Apr-21 04:29 UTC. Time now 2015-May-05 22:20 UTC.
Position N 36°45' E 001°20'.
Warning: this ship's position is 14 days out of date.

Length 126 m; draft 8.3 m.

Type: Cargo ship. MMSI: 255797000.

Date/timePositionNaut miles runAvg speedWind from/ knotsBaromVisibWave heightAir tempDewpointWater temp
2015-Apr-21 04:29N 36°45' E 001°20'3310.9
2015-Apr-21 01:30N 36°39' E 000°40'1311.0
2015-Apr-21 00:20N 36°37' E 000°24'910.5
2015-Apr-20 23:29N 36°36' E 000°13'3110.6
2015-Apr-20 20:31N 36°30' W 000°25'1110.9
2015-Apr-20 19:33N 36°28' W 000°38'1111.1
2015-Apr-20 18:33N 36°27' W 000°52'21311.5
2015-Apr-20 00:04N 35°58' W 005°13'714.9
2015-Apr-19 23:34N 35°58' W 005°22'25710.6
2015-Apr-18 23:23N 38°11' W 009°58'1012.2
2015-Apr-18 22:33N 38°21' W 010°01'1312.6
2015-Apr-18 21:33N 38°33' W 010°04'1212.3
2015-Apr-18 20:33N 38°45' W 010°06'1312.4
2015-Apr-18 19:33N 38°58' W 010°03'1312.7
2015-Apr-18 18:33N 39°09' W 009°56'1212.3
2015-Apr-18 17:33N 39°20' W 009°50'  
2015-Apr-14 06:31N 39°16' W 009°46'1111.8
2015-Apr-14 05:33N 39°04' W 009°48'1211.8
2015-Apr-14 04:33N 38°53' W 009°50'1211.6
2015-Apr-14 03:33N 38°41' W 009°51'1211.6
2015-Apr-14 02:33N 38°30' W 009°48'1211.8
2015-Apr-14 01:33N 38°18' W 009°45'1211.6
2015-Apr-14 00:33N 38°07' W 009°41'1211.6
2015-Apr-13 23:33N 37°56' W 009°37'1211.5
2015-Apr-13 22:33N 37°45' W 009°33'1111.3
2015-Apr-13 21:32N 37°34' W 009°30'8810.4
2015-Apr-13 13:04N 36°30' W 008°13'13212.3
2015-Apr-13 02:20N 35°57' W 005°35'810.6
2015-Apr-13 01:33N 35°59' W 005°25'7 7.1
2015-Apr-13 00:31N 35°54' W 005°19'0 0.0
2015-Apr-12 23:31N 35°54' W 005°19'0 0.0
2015-Apr-12 22:31N 35°54' W 005°19'0 0.0
2015-Apr-12 21:31N 35°54' W 005°19'0 0.0
2015-Apr-12 20:33N 35°54' W 005°19'0 0.0
2015-Apr-12 19:33N 35°54' W 005°19'1 1.0
2015-Apr-12 18:33N 35°55' W 005°19'22611.1
2015-Apr-11 22:06N 37°18' W 000°57'712.3
2015-Apr-11 21:33N 37°23' W 000°51'1412.4
2015-Apr-11 20:24N 37°32' W 000°37'1012.2
2015-Apr-11 19:33N 37°40' W 000°28'1212.2
2015-Apr-11 18:33N 37°49' W 000°18'1612.4
2015-Apr-11 17:14N 38°01' W 000°04'3512.5
2015-Apr-11 14:29N 38°27' E 000°25'1111.7
2015-Apr-11 13:32N 38°35' E 000°35'1312.4
2015-Apr-11 12:27N 38°45' E 000°46'3411.8
2015-Apr-11 09:33N 39°10' E 001°17'1211.8
2015-Apr-11 08:32N 39°18' E 001°28'1111.8
2015-Apr-11 07:33N 39°26' E 001°39'1211.8
2015-Apr-11 06:33N 39°34' E 001°50'1211.7
2015-Apr-11 05:33N 39°41' E 002°01'1111.4
2015-Apr-11 04:33N 39°49' E 002°13'  

Dump ship's entire track history